createdAt,value
2023-01-31T00:03:40.117Z,0.23
2023-01-31T00:33:40.117Z,2.07
2023-01-31T01:18:40.355Z,0.23
2023-01-31T01:33:40.452Z,0.18
2023-01-31T01:48:40.759Z,0.26
2023-01-31T02:03:39.848Z,0.27
2023-01-31T02:18:40.343Z,0.32
2023-01-31T02:33:40.711Z,4.11
2023-01-31T02:48:40.350Z,0.72
2023-01-31T03:03:40.137Z,0.87
2023-01-31T03:18:40.041Z,8.57
2023-01-31T03:33:40.595Z,6.76
2023-01-31T03:48:40.416Z,7.39
2023-01-31T04:18:40.436Z,7.24
2023-01-31T04:33:40.654Z,10.64
2023-01-31T05:03:40.263Z,18.01
2023-01-31T05:18:42.357Z,20.13
2023-01-31T05:33:40.517Z,12.98
2023-01-31T05:48:40.255Z,24.95
2023-01-31T06:48:40.419Z,11.16
2023-01-31T07:03:40.665Z,11.4
2023-01-31T07:18:40.624Z,12.81
2023-01-31T07:33:40.267Z,16.03
2023-01-31T07:48:40.427Z,10.83
2023-01-31T08:03:40.181Z,16.68
2023-01-31T08:18:40.359Z,16.52
2023-01-31T08:33:40.680Z,13.74
2023-01-31T08:48:40.092Z,5.27
2023-01-31T09:03:40.230Z,3.37
2023-01-31T09:18:40.332Z,6.42
2023-01-31T09:48:40.023Z,1.58
2023-01-31T10:03:40.034Z,0.4
2023-01-31T10:33:40.090Z,0.95
2023-01-31T10:48:39.962Z,4.58
2023-01-31T11:03:40.405Z,0.98
2023-01-31T11:18:39.963Z,0.14
2023-01-31T11:33:40.644Z,0.25
2023-01-31T11:48:40.486Z,0.15
2023-01-31T12:03:48.758Z,0.08
2023-01-31T12:18:40.146Z,0.89
2023-01-31T12:33:40.092Z,1.32
2023-01-31T13:18:40.039Z,2.81
2023-01-31T13:33:40.685Z,2.79
2023-01-31T13:48:40.590Z,0.07
2023-01-31T14:03:40.316Z,0.01
2023-01-31T14:18:39.988Z,0.32
2023-01-31T14:48:40.656Z,2.47
2023-01-31T15:03:39.890Z,1.67
2023-01-31T15:33:40.222Z,8.29
2023-01-31T15:48:45.067Z,5.44
2023-01-31T16:03:40.239Z,0.26
2023-01-31T16:33:39.990Z,0
2023-01-31T17:18:39.882Z,0.15
2023-01-31T17:33:40.361Z,0.01
2023-01-31T17:48:39.877Z,4.09
2023-01-31T18:03:40.243Z,0.03
2023-01-31T18:18:40.692Z,0
2023-01-31T18:33:40.100Z,2.2
2023-01-31T18:48:40.785Z,0.17
2023-01-31T19:18:40.403Z,0
2023-01-31T19:33:39.953Z,0
2023-01-31T19:48:40.307Z,0
2023-01-31T20:18:40.056Z,0
2023-01-31T20:33:40.429Z,0.77
2023-01-31T20:48:39.876Z,0.01
2023-01-31T21:03:42.038Z,0
2023-01-31T21:18:40.704Z,0
2023-01-31T21:33:40.185Z,0.86
2023-01-31T21:48:40.506Z,0.6
2023-01-31T22:03:39.939Z,0.01
2023-01-31T22:18:40.341Z,0
2023-01-31T22:33:40.465Z,0
2023-01-31T23:03:40.336Z,0.01
2023-01-31T23:18:40.338Z,0
2023-01-31T23:33:40.744Z,0
2023-01-31T23:48:40.114Z,0
